Colorado City, AZ

3:30 PM MST on November 11, 2019 (GMT -0700)
Colorado City Municipal

Weather History for KAZC - September, 2019

Change the Weather History Date:

Sunday, September 22, 2019

  Actual Average (WUND) Record (WUND)
Temperature  
Mean Temperature 60 °F -  
Max Temperature 84 °F - - (-1)
Min Temperature 35 °F - - (-1)
Degree Days  
Heating Degree Days 6    
Growing Degree Days 10 (Base 50)    
Moisture  
Dew Point 27 °F    
Average Humidity 33    
Maximum Humidity 75    
Minimum Humidity 10    
Precipitation  
Precipitation 0.00 in - - ()
Sea Level Pressure  
Sea Level Pressure 30.16 in    
Wind  
Wind Speed 4 mph (SSE)    
Max Wind Speed 10 mph    
Max Gust Speed 16 mph    
Visibility 10 miles    
Events      
Averages and records for this station are not official NWS values.
T = Trace of Precipitation, MM = Missing Value Source: NWS Daily Summary

Daily Weather History Graph

Daily Weather History Graph

Search for Another Location

Airport or City:

Astronomy

Sep. 22, 2019 Rise Set
Actual Time 6:19 AM MST 6:29 PM MST
Civil Twilight 5:53 AM MST 6:55 PM MST
Nautical Twilight 5:23 AM MST 7:25 PM MST
Astronomical Twilight 4:52 AM MST 7:55 PM MST
Moon No Moon Rise 2:19 PM MST (9/22)
Length of Visible Light 13h 01m
Length of Day
12h 09m
Last Quarter, 43% of the Moon is Illuminated
Sep 22
Last Quarter
Sep 28
New
Oct 5
First Quarter
Oct 13
Full
Oct 21
Last Quarter

Hourly Weather History & Observations

Time (MST) Temp. Windchill Dew Point Humidity Pressure Visibility Wind Dir Wind Speed Gust Speed Precip Events Conditions
12:15 AM 44.6 °F 42.2 °F 26.6 °F 49% 30.15 in 10.0 mi South 4.6 mph - N/A   Clear
12:35 AM 46.4 °F 44.3 °F 28.4 °F 50% 30.16 in 7.0 mi South 4.6 mph - N/A   Clear
12:55 AM 44.6 °F 41.4 °F 26.6 °F 49% 30.16 in 10.0 mi SSE 5.8 mph - N/A   Clear
1:15 AM 44.6 °F - 28.4 °F 53% 30.16 in 10.0 mi Calm Calm - N/A   Clear
1:35 AM 44.6 °F 41.4 °F 28.4 °F 53% 30.17 in 10.0 mi SSE 5.8 mph - N/A   Clear
1:55 AM 44.6 °F 41.4 °F 28.4 °F 53% 30.17 in 10.0 mi ESE 5.8 mph - N/A   Clear
2:15 AM 44.6 °F 41.4 °F 28.4 °F 53% 30.17 in 10.0 mi SE 5.8 mph - N/A   Clear
2:35 AM 44.6 °F 42.2 °F 28.4 °F 53% 30.17 in 10.0 mi SSE 4.6 mph - N/A   Clear
2:55 AM 44.6 °F 42.2 °F 26.6 °F 49% 30.17 in 10.0 mi SSE 4.6 mph - N/A   Clear
3:15 AM 41.0 °F 37.1 °F 28.4 °F 61% 30.17 in 10.0 mi SE 5.8 mph - N/A   Clear
3:35 AM 42.8 °F 38.6 °F 28.4 °F 57% 30.17 in 10.0 mi SE 6.9 mph - N/A   Clear
3:55 AM 42.8 °F - 28.4 °F 57% 30.17 in 10.0 mi Calm Calm - N/A   Clear
4:15 AM 41.0 °F 39.0 °F 28.4 °F 61% 30.17 in 10.0 mi ESE 3.5 mph - N/A   Clear
4:35 AM 37.4 °F - 26.6 °F 65% 30.17 in 10.0 mi Calm Calm - N/A   Clear
4:55 AM 41.0 °F 39.0 °F 28.4 °F 61% 30.18 in 10.0 mi South 3.5 mph - N/A   Clear
5:15 AM 37.4 °F 34.9 °F 26.6 °F 65% 30.18 in 10.0 mi SSE 3.5 mph - N/A   Clear
5:35 AM 37.4 °F 32.8 °F 26.6 °F 65% 30.19 in 10.0 mi SSE 5.8 mph - N/A   Clear
5:55 AM 37.4 °F - 28.4 °F 70% 30.19 in 10.0 mi Calm Calm - N/A   Clear
6:15 AM 35.6 °F - 28.4 °F 75% 30.19 in 10.0 mi Calm Calm - N/A   Clear
6:35 AM 37.4 °F 33.8 °F 28.4 °F 70% 30.20 in 10.0 mi SE 4.6 mph - N/A   Clear
6:55 AM 42.8 °F 40.1 °F 28.4 °F 57% 30.21 in 10.0 mi ESE 4.6 mph - N/A   Clear
7:15 AM 44.6 °F - 28.4 °F 53% 30.21 in 10.0 mi Calm Calm - N/A   Clear
7:35 AM 50.0 °F - 28.4 °F 43% 30.22 in 10.0 mi ESE 3.5 mph - N/A   Clear
7:55 AM 53.6 °F - 28.4 °F 38% 30.22 in 10.0 mi Calm Calm - N/A   Clear
8:15 AM 57.2 °F - 28.4 °F 33% 30.22 in 10.0 mi Calm Calm - N/A   Clear
8:35 AM 60.8 °F - 30.2 °F 31% 30.22 in 10.0 mi Calm Calm - N/A   Clear
8:55 AM 62.6 °F - 30.2 °F 30% 30.23 in 10.0 mi Calm Calm - N/A   Clear
9:15 AM 64.4 °F - 30.2 °F 28% 30.23 in 10.0 mi Calm Calm - N/A   Clear
9:35 AM 68.0 °F - 30.2 °F 24% 30.23 in 10.0 mi Calm Calm - N/A   Clear
9:55 AM 69.8 °F - 30.2 °F 23% 30.23 in 10.0 mi Calm Calm - N/A   Clear
10:15 AM 73.4 °F - 30.2 °F 20% 30.22 in 10.0 mi Calm Calm - N/A   Clear
10:35 AM 75.2 °F - 30.2 °F 19% 30.22 in 10.0 mi South 4.6 mph - N/A   Clear
10:55 AM 75.2 °F - 30.2 °F 19% 30.21 in 10.0 mi SE 5.8 mph - N/A   Clear
11:15 AM 77.0 °F - 28.4 °F 17% 30.21 in 10.0 mi SE 8.1 mph - N/A   Clear
11:35 AM 77.0 °F - 28.4 °F 17% 30.20 in 10.0 mi East 3.5 mph - N/A   Clear
11:55 AM 77.0 °F - 26.6 °F 16% 30.19 in 10.0 mi East 4.6 mph - N/A   Clear
12:15 PM 78.8 °F - 26.6 °F 15% 30.18 in 10.0 mi East 4.6 mph - N/A   Clear
12:35 PM 78.8 °F - 26.6 °F 15% 30.18 in 10.0 mi Calm Calm - N/A   Clear
12:55 PM 80.6 °F - 26.6 °F 14% 30.17 in 10.0 mi SSE 4.6 mph - N/A   Clear
1:15 PM 80.6 °F - 26.6 °F 14% 30.16 in 10.0 mi Calm Calm - N/A   Clear
1:35 PM 82.4 °F - 26.6 °F 13% 30.14 in 10.0 mi SE 8.1 mph - N/A   Clear
1:55 PM 80.6 °F - 24.8 °F 13% 30.14 in 10.0 mi West 4.6 mph - N/A   Clear
2:15 PM 84.2 °F - 26.6 °F 12% 30.13 in 10.0 mi South 10.4 mph - N/A   Clear
2:35 PM 82.4 °F - 26.6 °F 13% 30.13 in 10.0 mi SE 5.8 mph - N/A   Clear
2:55 PM 80.6 °F - 24.8 °F 13% 30.12 in 10.0 mi East 4.6 mph - N/A   Clear
3:15 PM 82.4 °F - 24.8 °F 12% 30.11 in 10.0 mi Calm Calm - N/A   Clear
3:35 PM 82.4 °F - 26.6 °F 13% 30.10 in 10.0 mi SW 9.2 mph - N/A   Clear
3:55 PM 82.4 °F - 24.8 °F 12% 30.11 in 10.0 mi SW 5.8 mph - N/A   Clear
4:15 PM 84.2 °F - 21.2 °F 10% 30.10 in 10.0 mi South 9.2 mph - N/A   Clear
4:35 PM 80.6 °F - 19.4 °F 10% 30.10 in 10.0 mi SW 10.4 mph 16.1 mph N/A   Clear
4:55 PM 80.6 °F - 26.6 °F 14% 30.11 in 10.0 mi West 10.4 mph - N/A   Clear
5:15 PM 80.6 °F - 26.6 °F 14% 30.11 in 10.0 mi West 6.9 mph - N/A   Clear
5:35 PM 77.0 °F - 26.6 °F 16% 30.11 in 10.0 mi WNW 6.9 mph - N/A   Clear
5:55 PM 77.0 °F - 26.6 °F 16% 30.10 in 10.0 mi WNW 8.1 mph - N/A   Clear
6:15 PM 73.4 °F - 26.6 °F 18% 30.10 in 10.0 mi NW 5.8 mph - N/A   Clear
6:35 PM 73.4 °F - 26.6 °F 18% 30.10 in 10.0 mi NW 5.8 mph - N/A   Clear
6:55 PM 71.6 °F - 26.6 °F 19% 30.11 in 10.0 mi NNW 3.5 mph - N/A   Clear
7:15 PM 71.6 °F - 28.4 °F 20% 30.11 in 10.0 mi NW 6.9 mph - N/A   Clear
7:35 PM 69.8 °F - 28.4 °F 21% 30.12 in 10.0 mi NNW 4.6 mph - N/A   Clear
7:55 PM 68.0 °F - 26.6 °F 21% 30.12 in 10.0 mi NW 4.6 mph - N/A   Clear
8:15 PM 66.2 °F - 26.6 °F 23% 30.12 in 10.0 mi NNW 4.6 mph - N/A   Clear
8:35 PM 64.4 °F - 28.4 °F 26% 30.13 in 10.0 mi North 3.5 mph - N/A   Clear
8:55 PM 64.4 °F - 28.4 °F 26% 30.13 in 10.0 mi North 5.8 mph - N/A   Clear
9:15 PM 60.8 °F - 26.6 °F 27% 30.14 in 10.0 mi Calm Calm - N/A   Clear
9:35 PM 55.4 °F - 26.6 °F 33% 30.15 in 10.0 mi Calm Calm - N/A   Clear
9:55 PM 51.8 °F - 26.6 °F 38% 30.15 in 10.0 mi Calm Calm - N/A   Clear
10:15 PM 51.8 °F - 28.4 °F 41% 30.15 in 10.0 mi ESE 3.5 mph - N/A   Clear
10:35 PM 51.8 °F - 30.2 °F 44% 30.15 in 10.0 mi ESE 3.5 mph - N/A   Clear
10:55 PM 51.8 °F - 26.6 °F 38% 30.15 in 10.0 mi Calm Calm - N/A   Clear
11:15 PM 51.8 °F - 26.6 °F 38% 30.14 in 10.0 mi SSE 3.5 mph - N/A   Clear
11:35 PM 51.8 °F - 26.6 °F 38% 30.14 in 10.0 mi SE 4.6 mph - N/A   Clear
11:55 PM 50.0 °F - 26.6 °F 40% 30.13 in 10.0 mi ESE 4.6 mph - N/A   Clear